Aérodrome :
LOGIN :

S'inscrire | Disclaimer

   EN    FR    IT 

 










Légende :    VFR   VFR Marginal   IFR   IFR Intensif   IFR Très Intensif
Visi : 
Plafond : 
>= 8 km
>= 3000ft
5 à 8 km
1000 à 3000 ft
1500m à 5 km
500 à 1000 ft
800 à 1500m
200 à 500 ft
< 800m
< 200 ft
Symboles :   Orages  Brouillard  Fortes neiges  Fortes précipitations  Vent > 20 kt
SIGMETs :   Divers  Orages  Givrage  Turbulence  Onde Orograph.  Cendres Volcan.







- Altitude de l'aérodrome : 885 ft
- Code IATA : BAS
- Voir les cartes d'approche


LFSB - Bale-Mulhouse

DERNIER METAR :
  • 181500Z 30006KT 9999 FEW056TCU BKN210 28/14 Q1014 TEMPO FEW055CB

METARs EXPIRÉS :
  • 181430Z 30007KT 9999 FEW053TCU BKN250 28/13 Q1014 TEMPO FEW055CB
  • 181400Z 31008KT 9999 FEW053TCU BKN250 28/14 Q1014 TEMPO FEW055CB
  • 181330Z 29005KT 260V320 9999 FEW053TCU BKN250 29/15 Q1014 TEMPO FEW055CB
  • 181300Z 31006KT 270V350 9999 FEW053TCU BKN250 29/16 Q1014 TEMPO FEW055CB
  • 181230Z 23004KT 160V280 9999 FEW053TCU BKN250 29/16 Q1014 BECMG FEW055CB

TAF AMD TAF LFSB
Valide du 18 à 12h jusqu'au 19 à 12h UTC


181254Z 1812/1912 VRB05KT 9999 FEW055TCU
TEMPO 1814/1819 FEW055CB
PROB30
TEMPO 1815/1818 VRB10G28KT TS
BECMG 1818/1820 CAVOK
BECMG 1910/1912 28008KT FEW070CB
Météo : +33 3 89 90 31 11
Pas de NOTAMs connus pour ce terrain.



MET'MAP, la Météo Aéronautique d'un coup d'oeil ! - Copyright ORBIFLY Décembre 2007 - Disclaimer

ORBIFLY MET'MAP TEAM :

Programmation & Développement : Alexandra Zaïnal
Conception & Développement : Baudouin d'Aumeries
Co-Programmation & Développement : Marc-Olivier Méhu
Soutien technique & logistique : Manuel Goepfert

Contact : metmap@orbifly.com




SOURCES & CREDITS :

   NOAA